Time;durP1;ratioP1;P1;durP2;ratioP2;P2;SDS_P1;SDS_P2;PMS_P1;PMS_P2;Temp;Humidity;BMP_temperature;BMP_pressure;BME280_temperature;BME280_humidity;BME280_pressure;Samples;Min_cycle;Max_cycle;Signal;HPM_P1;HPM_P2
2023/04/16 00:00:03;;;;;;;0.00;0.00;;;8.60;99.90;;;;;;5091975;28;20220;-60
2023/04/16 00:02:29;;;;;;;0.00;0.00;;;8.60;99.90;;;;;;5092922;28;20199;-60
2023/04/16 00:04:55;;;;;;;0.05;0.05;;;8.60;99.90;;;;;;5092739;28;20260;-60
2023/04/16 00:07:20;;;;;;;0.00;0.00;;;8.60;99.90;;;;;;5092478;28;20545;-60
2023/04/16 00:09:46;;;;;;;0.10;0.10;;;8.60;99.90;;;;;;5092218;28;20212;-60
2023/04/16 00:12:11;;;;;;;0.00;0.00;;;8.70;99.90;;;;;;5092412;28;20279;-60
2023/04/16 00:14:37;;;;;;;0.10;0.10;;;8.60;99.90;;;;;;5091901;28;20176;-60
2023/04/16 00:17:02;;;;;;;0.00;0.00;;;8.70;99.90;;;;;;5092557;28;20231;-60
2023/04/16 00:19:28;;;;;;;0.00;0.00;;;8.70;99.90;;;;;;5091889;28;20278;-60
2023/04/16 00:21:54;;;;;;;0.00;0.00;;;8.70;99.90;;;;;;5092522;28;20184;-60
2023/04/16 00:24:19;;;;;;;0.10;0.10;;;8.70;99.90;;;;;;5091665;28;20545;-60
2023/04/16 00:26:45;;;;;;;0.00;0.00;;;8.70;99.90;;;;;;5091715;28;20265;-60
2023/04/16 00:29:11;;;;;;;0.00;0.00;;;8.70;99.90;;;;;;5091639;28;20208;-60
2023/04/16 00:31:37;;;;;;;0.00;0.00;;;8.70;99.90;;;;;;5092109;28;20203;-60
2023/04/16 00:34:03;;;;;;;0.03;0.03;;;8.70;99.90;;;;;;5091462;28;20257;-60
2023/04/16 00:36:28;;;;;;;0.10;0.10;;;8.70;99.90;;;;;;5090388;28;20951;-60
2023/04/16 00:38:55;;;;;;;0.00;0.00;;;8.70;99.90;;;;;;5092265;28;20266;-60
2023/04/16 00:41:22;;;;;;;0.40;0.20;;;8.70;99.90;;;;;;5091432;28;20222;-60
2023/04/16 00:43:47;;;;;;;0.00;0.00;;;8.70;99.90;;;;;;5084622;28;20284;-60
2023/04/16 00:46:14;;;;;;;0.00;0.00;;;8.70;99.90;;;;;;5087944;28;20259;-60
2023/04/16 00:48:42;;;;;;;0.03;0.03;;;8.70;99.90;;;;;;5090894;28;20265;-60
2023/04/16 00:51:08;;;;;;;0.00;0.00;;;8.60;99.90;;;;;;5091231;28;20260;-61
2023/04/16 00:53:34;;;;;;;0.00;0.00;;;8.60;99.90;;;;;;5091011;28;20631;-62
2023/04/16 00:56:02;;;;;;;0.10;0.10;;;8.60;99.90;;;;;;5089050;28;20245;-59
2023/04/16 00:58:28;;;;;;;0.00;0.00;;;8.60;99.90;;;;;;5089694;28;20180;-59
2023/04/16 01:00:55;;;;;;;0.03;0.03;;;8.60;99.90;;;;;;5091558;28;20516;-59
2023/04/16 01:03:21;;;;;;;0.00;0.00;;;8.60;99.90;;;;;;5091294;28;20295;-59
2023/04/16 01:05:48;;;;;;;0.00;0.00;;;8.60;99.90;;;;;;5091217;28;20811;-59
2023/04/16 01:08:17;;;;;;;0.00;0.00;;;8.50;99.90;;;;;;5090997;28;20180;-59
2023/04/16 01:10:44;;;;;;;0.00;0.00;;;8.50;99.90;;;;;;5091212;28;20176;-59
2023/04/16 01:13:09;;;;;;;0.00;0.00;;;8.50;99.90;;;;;;5090534;28;20176;-59
2023/04/16 01:15:35;;;;;;;0.00;0.00;;;8.50;99.90;;;;;;5090618;28;20187;-59
2023/04/16 01:18:01;;;;;;;0.00;0.00;;;8.50;99.90;;;;;;5091718;28;20172;-59
2023/04/16 01:20:27;;;;;;;0.00;0.00;;;8.60;99.90;;;;;;5090862;28;20262;-59
2023/04/16 01:22:52;;;;;;;0.10;0.10;;;8.60;99.90;;;;;;5072754;28;20480;-59
2023/04/16 01:25:18;;;;;;;0.00;0.00;;;8.60;99.90;;;;;;5090626;28;20183;-59
2023/04/16 01:27:44;;;;;;;0.10;0.10;;;8.60;99.90;;;;;;5089852;28;20220;-59
2023/04/16 01:30:10;;;;;;;0.00;0.00;;;8.50;99.90;;;;;;5090537;28;20208;-59
2023/04/16 01:32:35;;;;;;;0.00;0.00;;;8.50;99.90;;;;;;5090665;28;20180;-59
2023/04/16 01:35:01;;;;;;;0.00;0.00;;;8.50;99.90;;;;;;5090073;28;20177;-59
2023/04/16 01:37:27;;;;;;;0.00;0.00;;;8.60;99.90;;;;;;5072320;28;20196;-59
2023/04/16 01:39:52;;;;;;;0.20;0.20;;;8.60;99.90;;;;;;5090671;28;20212;-59
2023/04/16 01:42:18;;;;;;;0.00;0.00;;;8.60;99.90;;;;;;5072194;28;20602;-59
2023/04/16 01:44:46;;;;;;;0.10;0.10;;;8.60;99.90;;;;;;5090390;28;20180;-59
2023/04/16 01:47:12;;;;;;;0.00;0.00;;;8.60;99.90;;;;;;5090040;28;20203;-59
2023/04/16 01:49:37;;;;;;;0.17;0.17;;;8.60;99.90;;;;;;5089309;28;20254;-59
2023/04/16 01:52:03;;;;;;;0.00;0.00;;;8.60;99.90;;;;;;5091087;28;20235;-59
2023/04/16 01:54:28;;;;;;;0.00;0.00;;;8.60;99.90;;;;;;5090230;28;20176;-59
2023/04/16 01:56:54;;;;;;;0.00;0.00;;;8.50;99.90;;;;;;5091434;28;20184;-60
2023/04/16 01:59:20;;;;;;;0.13;0.13;;;8.50;99.90;;;;;;5090197;28;20188;-60
2023/04/16 02:01:45;;;;;;;0.22;0.22;;;8.50;99.90;;;;;;5090068;28;20196;-60
2023/04/16 02:04:11;;;;;;;0.00;0.00;;;8.50;99.90;;;;;;5090873;28;20264;-60
2023/04/16 02:06:37;;;;;;;0.00;0.00;;;8.50;99.90;;;;;;5090468;28;20314;-60
2023/04/16 02:09:03;;;;;;;0.00;0.00;;;8.50;99.90;;;;;;5090464;28;20200;-60
2023/04/16 02:11:28;;;;;;;0.20;0.20;;;8.50;99.90;;;;;;5090953;28;20183;-60
2023/04/16 02:13:54;;;;;;;0.32;0.32;;;8.50;99.90;;;;;;5090791;28;20180;-60
2023/04/16 02:16:19;;;;;;;0.00;0.00;;;8.50;99.90;;;;;;5090129;28;20248;-60
2023/04/16 02:18:45;;;;;;;0.00;0.00;;;8.50;99.90;;;;;;5090580;28;20180;-60
2023/04/16 02:21:10;;;;;;;0.13;0.13;;;8.50;99.90;;;;;;5090557;28;20184;-60
2023/04/16 02:23:39;;;;;;;0.00;0.00;;;8.50;99.90;;;;;;5090662;28;20172;-60
2023/04/16 02:26:05;;;;;;;0.50;0.50;;;8.40;99.90;;;;;;5090486;28;20210;-60
2023/04/16 02:28:30;;;;;;;0.03;0.03;;;8.40;99.90;;;;;;5089907;28;20578;-60
2023/04/16 02:30:56;;;;;;;0.05;0.05;;;8.40;99.90;;;;;;5090150;28;20195;-60
2023/04/16 02:33:24;;;;;;;0.00;0.00;;;8.50;99.90;;;;;;5090797;28;20661;-60
2023/04/16 02:35:50;;;;;;;0.05;0.05;;;8.40;99.90;;;;;;5090107;28;20670;-60
2023/04/16 02:38:15;;;;;;;0.10;0.10;;;8.40;99.90;;;;;;5090144;28;20188;-60
2023/04/16 02:40:41;;;;;;;0.00;0.00;;;8.40;99.90;;;;;;5090584;28;20275;-60
2023/04/16 02:43:07;;;;;;;0.10;0.10;;;8.40;99.90;;;;;;5090121;28;20180;-60
2023/04/16 02:45:33;;;;;;;0.00;0.00;;;8.40;99.90;;;;;;5070947;28;20636;-60
2023/04/16 02:47:59;;;;;;;0.10;0.10;;;8.40;99.90;;;;;;5090189;28;20168;-60
2023/04/16 02:50:25;;;;;;;0.00;0.00;;;8.40;99.90;;;;;;5090017;28;20224;-60
2023/04/16 02:52:50;;;;;;;0.00;0.00;;;8.40;99.90;;;;;;5089875;28;20233;-60
2023/04/16 02:55:16;;;;;;;0.05;0.05;;;8.40;99.90;;;;;;5090466;28;20175;-60
2023/04/16 02:57:41;;;;;;;0.15;0.15;;;8.30;99.90;;;;;;5086188;28;20184;-60
2023/04/16 03:00:07;;;;;;;0.00;0.00;;;8.30;99.90;;;;;;5090717;28;20180;-60
2023/04/16 03:02:33;;;;;;;0.00;0.00;;;8.30;99.90;;;;;;5093986;28;20191;-60
2023/04/16 03:04:58;;;;;;;0.00;0.00;;;8.40;99.90;;;;;;5093904;28;20172;-60
2023/04/16 03:07:24;;;;;;;0.00;0.00;;;8.30;99.90;;;;;;5094122;28;20256;-60
2023/04/16 03:09:50;;;;;;;0.00;0.00;;;8.30;99.90;;;;;;5093770;28;20220;-60
2023/04/16 03:12:16;;;;;;;0.32;0.30;;;8.30;99.90;;;;;;5093786;28;20316;-60
2023/04/16 03:14:42;;;;;;;0.00;0.00;;;8.40;99.90;;;;;;5093921;28;20238;-60
2023/04/16 03:17:07;;;;;;;0.00;0.00;;;8.40;99.90;;;;;;5093635;28;20177;-60
2023/04/16 03:19:33;;;;;;;0.00;0.00;;;8.40;99.90;;;;;;5093686;28;20182;-60
2023/04/16 03:21:58;;;;;;;0.10;0.10;;;8.40;99.90;;;;;;5094280;28;20182;-60
2023/04/16 03:24:25;;;;;;;0.00;0.00;;;8.40;99.90;;;;;;5093517;28;20202;-60
2023/04/16 03:26:50;;;;;;;0.00;0.00;;;8.40;99.90;;;;;;5093426;28;20334;-60
2023/04/16 03:29:16;;;;;;;0.00;0.00;;;8.40;99.90;;;;;;5093851;28;20682;-61
2023/04/16 03:31:41;;;;;;;0.00;0.00;;;8.40;99.90;;;;;;5093632;28;20264;-60
2023/04/16 03:34:07;;;;;;;0.08;0.08;;;8.40;99.90;;;;;;5093351;28;20267;-61
2023/04/16 03:36:32;;;;;;;0.00;0.00;;;8.40;99.90;;;;;;5093726;28;20712;-60
2023/04/16 03:38:58;;;;;;;0.10;0.10;;;8.40;99.90;;;;;;5093086;28;20183;-60
2023/04/16 03:41:23;;;;;;;0.00;0.00;;;8.40;99.90;;;;;;5093316;28;20635;-60
2023/04/16 03:43:49;;;;;;;0.00;0.00;;;8.40;99.90;;;;;;5093464;28;20221;-60
2023/04/16 03:46:14;;;;;;;0.00;0.00;;;8.40;99.90;;;;;;5092793;28;20172;-60
2023/04/16 03:48:40;;;;;;;0.25;0.25;;;8.40;99.90;;;;;;5092926;28;20295;-60
2023/04/16 03:51:05;;;;;;;0.00;0.00;;;8.40;99.90;;;;;;5093255;28;20229;-60
2023/04/16 03:53:31;;;;;;;0.00;0.00;;;8.40;99.90;;;;;;5093518;28;20181;-60
2023/04/16 03:55:56;;;;;;;0.00;0.00;;;8.40;99.90;;;;;;5092878;28;20487;-60
2023/04/16 03:58:22;;;;;;;0.00;0.00;;;8.40;99.90;;;;;;5092765;28;20173;-60
2023/04/16 04:00:47;;;;;;;0.00;0.00;;;8.40;99.90;;;;;;5093179;28;20184;-60
2023/04/16 04:03:15;;;;;;;0.10;0.10;;;8.40;99.90;;;;;;5092169;28;20183;-60
2023/04/16 04:05:41;;;;;;;0.10;0.10;;;8.40;99.90;;;;;;5092428;28;20176;-60
2023/04/16 04:08:08;;;;;;;0.10;0.10;;;8.40;99.90;;;;;;5092893;28;20176;-60
2023/04/16 04:10:34;;;;;;;0.00;0.00;;;8.30;99.90;;;;;;5092676;28;20296;-60
2023/04/16 04:13:04;;;;;;;0.47;0.38;;;8.30;99.90;;;;;;5091908;28;20172;-60
2023/04/16 04:15:30;;;;;;;0.10;0.10;;;8.30;99.90;;;;;;5093012;28;20293;-60
2023/04/16 04:17:56;;;;;;;0.10;0.10;;;8.40;99.90;;;;;;5092528;28;20187;-60
2023/04/16 04:20:22;;;;;;;0.20;0.20;;;8.40;99.90;;;;;;5092404;28;20184;-60
2023/04/16 04:22:47;;;;;;;0.00;0.00;;;8.40;99.90;;;;;;5092929;28;20207;-60
2023/04/16 04:25:13;;;;;;;0.00;0.00;;;8.40;99.90;;;;;;5092471;28;20267;-60
2023/04/16 04:27:39;;;;;;;0.03;0.03;;;8.40;99.90;;;;;;5092667;28;20299;-60
2023/04/16 04:30:05;;;;;;;0.10;0.10;;;8.40;99.90;;;;;;5092745;28;20256;-60
2023/04/16 04:32:31;;;;;;;0.57;0.57;;;8.40;99.90;;;;;;5090738;28;20188;-62
2023/04/16 04:34:57;;;;;;;0.10;0.10;;;8.40;99.90;;;;;;5091932;28;20537;-60
2023/04/16 04:37:23;;;;;;;0.05;0.05;;;8.40;99.90;;;;;;5092809;28;20176;-60
2023/04/16 04:39:48;;;;;;;0.05;0.05;;;8.40;99.90;;;;;;5092000;28;20194;-60
2023/04/16 04:42:17;;;;;;;1.00;0.75;;;8.40;99.90;;;;;;5092076;28;20176;-60
2023/04/16 04:44:43;;;;;;;0.00;0.00;;;8.30;99.90;;;;;;5092366;28;20242;-60
2023/04/16 04:47:08;;;;;;;0.17;0.17;;;8.30;99.90;;;;;;5091854;28;20654;-60
2023/04/16 04:49:34;;;;;;;0.00;0.00;;;8.30;99.90;;;;;;5091681;28;20250;-60
2023/04/16 04:52:00;;;;;;;0.30;0.30;;;8.30;99.90;;;;;;5084696;28;20555;-60
2023/04/16 04:54:27;;;;;;;0.00;0.00;;;8.40;99.90;;;;;;5088650;28;20279;-61
2023/04/16 04:56:52;;;;;;;0.30;0.30;;;8.30;99.90;;;;;;5091466;28;20187;-61
2023/04/16 04:59:19;;;;;;;0.00;0.00;;;8.40;99.90;;;;;;5073259;28;20168;-61
2023/04/16 05:01:45;;;;;;;0.00;0.00;;;8.40;99.90;;;;;;5091992;28;20184;-61
2023/04/16 05:04:11;;;;;;;0.25;0.22;;;8.40;99.90;;;;;;5073313;28;20180;-61
2023/04/16 05:06:36;;;;;;;0.15;0.15;;;8.40;99.90;;;;;;5091359;28;20282;-61
2023/04/16 05:09:02;;;;;;;0.00;0.00;;;8.50;99.90;;;;;;5091912;28;20245;-61
2023/04/16 05:11:28;;;;;;;0.32;0.32;;;8.40;99.90;;;;;;5091679;28;20211;-61
2023/04/16 05:13:53;;;;;;;0.00;0.00;;;8.40;99.90;;;;;;5091666;28;20180;-61
2023/04/16 05:16:19;;;;;;;0.00;0.00;;;8.40;99.90;;;;;;5092070;28;20255;-61
2023/04/16 05:18:45;;;;;;;0.17;0.17;;;8.40;99.90;;;;;;5091171;28;20187;-61
2023/04/16 05:21:10;;;;;;;0.15;0.10;;;8.40;99.90;;;;;;5091555;28;20569;-61
2023/04/16 05:23:36;;;;;;;0.15;0.15;;;8.30;99.90;;;;;;5091856;28;20685;-59
2023/04/16 05:26:01;;;;;;;0.00;0.00;;;8.30;99.90;;;;;;5091610;28;20666;-59
2023/04/16 05:28:27;;;;;;;0.10;0.10;;;8.40;99.90;;;;;;5091036;28;20216;-59
2023/04/16 05:30:52;;;;;;;0.30;0.30;;;8.40;99.90;;;;;;5091484;28;20198;-59
2023/04/16 05:33:18;;;;;;;0.00;0.00;;;8.40;99.90;;;;;;5090900;28;20179;-59
2023/04/16 05:35:43;;;;;;;0.00;0.00;;;8.40;99.90;;;;;;5091414;28;20659;-59
2023/04/16 05:38:09;;;;;;;0.30;0.30;;;8.40;99.90;;;;;;5091042;28;20700;-61
2023/04/16 05:40:35;;;;;;;0.32;0.32;;;8.40;99.90;;;;;;5090933;28;20211;-60
2023/04/16 05:43:00;;;;;;;0.10;0.10;;;8.40;99.90;;;;;;5090822;28;20180;-61
2023/04/16 05:45:26;;;;;;;0.00;0.00;;;8.40;99.90;;;;;;5090743;28;20548;-61
2023/04/16 05:47:51;;;;;;;0.00;0.00;;;8.50;99.90;;;;;;5090953;28;20180;-61
2023/04/16 05:50:17;;;;;;;0.00;0.00;;;8.50;99.90;;;;;;5090323;28;20216;-61
2023/04/16 05:52:42;;;;;;;0.00;0.00;;;8.50;99.90;;;;;;5079347;28;20195;-61
2023/04/16 05:55:08;;;;;;;0.20;0.20;;;8.50;99.90;;;;;;5089041;28;20184;-60
2023/04/16 05:57:34;;;;;;;0.10;0.10;;;8.50;99.90;;;;;;5090471;28;20255;-60
2023/04/16 05:59:59;;;;;;;0.22;0.20;;;8.60;99.90;;;;;;5089961;28;20188;-60
2023/04/16 06:02:25;;;;;;;0.00;0.00;;;8.60;99.90;;;;;;5081889;28;20195;-60
2023/04/16 06:04:50;;;;;;;0.00;0.00;;;8.60;99.90;;;;;;5082020;28;20181;-60
2023/04/16 06:07:16;;;;;;;0.10;0.10;;;8.60;99.90;;;;;;5090236;28;20176;-61
2023/04/16 06:09:41;;;;;;;0.13;0.13;;;8.60;99.90;;;;;;5090655;28;20575;-60
2023/04/16 06:12:07;;;;;;;0.17;0.17;;;8.60;99.90;;;;;;5090615;28;20181;-60
2023/04/16 06:14:32;;;;;;;0.15;0.15;;;8.60;99.90;;;;;;5090055;28;20238;-59
2023/04/16 06:16:58;;;;;;;0.13;0.13;;;8.60;99.90;;;;;;5088877;28;20519;-60
2023/04/16 06:19:24;;;;;;;0.15;0.10;;;8.60;99.90;;;;;;5089176;28;20188;-60
2023/04/16 06:21:50;;;;;;;0.10;0.10;;;8.60;99.90;;;;;;5089974;28;20179;-60
2023/04/16 06:24:17;;;;;;;0.00;0.00;;;8.60;99.90;;;;;;5090667;28;20184;-59
2023/04/16 06:26:42;;;;;;;0.13;0.10;;;8.70;99.90;;;;;;5089756;28;20183;-58
2023/04/16 06:29:08;;;;;;;0.00;0.00;;;8.80;99.90;;;;;;5089666;28;20215;-61
2023/04/16 06:31:34;;;;;;;0.20;0.20;;;8.80;99.90;;;;;;5090159;28;20191;-58
2023/04/16 06:34:00;;;;;;;0.22;0.22;;;8.80;99.90;;;;;;5090294;28;20177;-61
2023/04/16 06:36:26;;;;;;;0.00;0.00;;;8.80;99.90;;;;;;5096264;28;20179;-64
2023/04/16 06:38:52;;;;;;;0.00;0.00;;;8.80;99.90;;;;;;5096793;28;20179;-61
2023/04/16 06:41:17;;;;;;;0.00;0.00;;;8.80;99.90;;;;;;5095738;28;20209;-60
2023/04/16 06:43:43;;;;;;;0.00;0.00;;;8.80;99.90;;;;;;5096851;28;20180;-63
2023/04/16 06:46:08;;;;;;;0.00;0.00;;;8.90;99.90;;;;;;5097272;28;20224;-61
2023/04/16 06:48:34;;;;;;;0.00;0.00;;;8.90;99.90;;;;;;5097169;28;20262;-59
2023/04/16 06:51:00;;;;;;;0.22;0.22;;;8.90;99.90;;;;;;5097246;28;20183;-59
2023/04/16 06:53:26;;;;;;;0.00;0.00;;;9.00;99.90;;;;;;5096248;28;20214;-61
2023/04/16 06:55:51;;;;;;;0.00;0.00;;;9.00;99.90;;;;;;5096651;28;20340;-61
2023/04/16 06:58:17;;;;;;;0.00;0.00;;;9.00;99.90;;;;;;5097239;28;20190;-61
2023/04/16 07:00:42;;;;;;;0.10;0.10;;;9.10;99.90;;;;;;5089240;28;20503;-61
2023/04/16 07:03:08;;;;;;;0.13;0.13;;;9.10;99.90;;;;;;5093430;28;20272;-62
2023/04/16 07:05:33;;;;;;;0.00;0.00;;;9.10;99.90;;;;;;5097798;28;20266;-61
2023/04/16 07:07:59;;;;;;;0.00;0.00;;;9.20;99.90;;;;;;5097518;28;20206;-61
2023/04/16 07:10:24;;;;;;;0.00;0.00;;;9.20;99.90;;;;;;5097458;28;20242;-62
2023/04/16 07:12:50;;;;;;;0.00;0.00;;;9.30;99.90;;;;;;5097572;28;20176;-62
2023/04/16 07:15:15;;;;;;;0.00;0.00;;;9.30;99.90;;;;;;5097467;28;20275;-61
2023/04/16 07:17:41;;;;;;;0.00;0.00;;;9.30;99.90;;;;;;5079219;28;20176;-62
2023/04/16 07:20:07;;;;;;;0.00;0.00;;;9.40;99.90;;;;;;5079510;28;20561;-61
2023/04/16 07:22:33;;;;;;;0.50;0.50;;;9.40;99.90;;;;;;5097904;28;20215;-61
2023/04/16 07:24:58;;;;;;;0.15;0.15;;;9.30;99.90;;;;;;5097951;28;20207;-62
2023/04/16 07:27:24;;;;;;;0.13;0.13;;;9.30;99.90;;;;;;5097745;28;20573;-61
2023/04/16 07:29:49;;;;;;;0.00;0.00;;;9.30;99.90;;;;;;5097649;28;20223;-61
2023/04/16 07:32:15;;;;;;;0.00;0.00;;;9.40;99.90;;;;;;5097634;28;20635;-62
2023/04/16 07:34:42;;;;;;;0.00;0.00;;;9.40;99.90;;;;;;5097100;28;20206;-63
2023/04/16 07:37:07;;;;;;;0.00;0.00;;;9.40;99.90;;;;;;5097009;28;20259;-61
2023/04/16 07:39:33;;;;;;;0.00;0.00;;;9.50;99.90;;;;;;5096706;28;20192;-61
2023/04/16 07:41:59;;;;;;;0.00;0.00;;;9.50;99.90;;;;;;5096986;28;20172;-61
2023/04/16 07:44:24;;;;;;;0.00;0.00;;;9.50;99.90;;;;;;5097313;28;20308;-61
2023/04/16 07:46:50;;;;;;;0.00;0.00;;;9.50;99.90;;;;;;5094852;28;20259;-61
2023/04/16 07:49:15;;;;;;;0.00;0.00;;;9.50;99.90;;;;;;5075976;28;20250;-61
2023/04/16 07:51:41;;;;;;;0.00;0.00;;;9.40;99.90;;;;;;5094370;28;20255;-61
2023/04/16 07:54:06;;;;;;;0.00;0.00;;;9.40;99.90;;;;;;5094211;28;20180;-61
2023/04/16 07:56:32;;;;;;;0.10;0.10;;;9.50;99.90;;;;;;5094390;28;20603;-61
2023/04/16 07:58:58;;;;;;;0.00;0.00;;;9.40;99.90;;;;;;5094325;28;20177;-61
2023/04/16 08:01:23;;;;;;;0.00;0.00;;;9.50;99.90;;;;;;5094105;28;20176;-61
2023/04/16 08:03:50;;;;;;;0.10;0.10;;;9.50;99.90;;;;;;5093536;28;20515;-61
2023/04/16 08:06:15;;;;;;;0.00;0.00;;;9.50;99.90;;;;;;5078592;28;20199;-61
2023/04/16 08:08:41;;;;;;;0.30;0.30;;;9.50;99.90;;;;;;5094108;28;20176;-61
2023/04/16 08:11:07;;;;;;;0.00;0.00;;;9.50;99.90;;;;;;5093986;28;20187;-61
2023/04/16 08:13:32;;;;;;;0.08;0.08;;;9.50;99.90;;;;;;5094195;28;20184;-61
2023/04/16 08:15:58;;;;;;;0.10;0.10;;;9.50;99.90;;;;;;5093890;28;20640;-61
2023/04/16 08:18:23;;;;;;;0.00;0.00;;;9.50;99.90;;;;;;5093849;28;20678;-61
2023/04/16 08:20:49;;;;;;;0.10;0.10;;;9.60;99.90;;;;;;5093722;28;20180;-61
2023/04/16 08:23:14;;;;;;;0.03;0.03;;;9.60;99.90;;;;;;5093826;28;20177;-61
2023/04/16 08:25:40;;;;;;;0.88;0.22;;;9.50;99.90;;;;;;5093816;28;20183;-61
2023/04/16 08:28:05;;;;;;;0.03;0.03;;;9.50;99.90;;;;;;5093462;28;20223;-61
2023/04/16 08:30:31;;;;;;;0.00;0.00;;;9.70;99.90;;;;;;5093679;28;20215;-61
2023/04/16 08:32:56;;;;;;;0.00;0.00;;;9.70;99.90;;;;;;5093624;28;20581;-61
2023/04/16 08:35:22;;;;;;;0.00;0.00;;;9.80;99.90;;;;;;5093649;28;20168;-61
2023/04/16 08:37:47;;;;;;;0.10;0.10;;;9.90;99.90;;;;;;5093169;28;20202;-61
2023/04/16 08:40:13;;;;;;;0.22;0.22;;;10.00;99.90;;;;;;5093482;28;20175;-61
2023/04/16 08:42:51;;;;;;;0.00;0.00;;;10.00;99.90;;;;;;5093556;28;20180;-61
2023/04/16 08:45:17;;;;;;;0.05;0.05;;;10.10;99.90;;;;;;5093323;28;20176;-61
2023/04/16 08:47:47;;;;;;;0.30;0.30;;;10.10;99.90;;;;;;5093329;28;20234;-61
2023/04/16 08:50:15;;;;;;;0.03;0.03;;;10.20;99.90;;;;;;5093157;28;20307;-61
2023/04/16 08:53:02;;;;;;;0.05;0.05;;;10.20;99.90;;;;;;5093275;28;20168;-61
2023/04/16 08:55:39;;;;;;;0.28;0.25;;;10.20;99.90;;;;;;5092834;28;20180;-61
2023/04/16 08:58:14;;;;;;;0.00;0.00;;;10.20;99.90;;;;;;5092795;28;20179;-61
2023/04/16 09:00:40;;;;;;;0.00;0.00;;;10.10;99.90;;;;;;5093131;28;20166;-61
2023/04/16 09:03:07;;;;;;;0.00;0.00;;;10.10;99.90;;;;;;5092803;28;20180;-61
2023/04/16 09:05:32;;;;;;;0.10;0.10;;;10.10;99.90;;;;;;5071391;28;20238;-61
2023/04/16 09:07:58;;;;;;;0.10;0.10;;;10.10;99.90;;;;;;5072787;28;20176;-61
2023/04/16 09:10:25;;;;;;;0.10;0.10;;;10.10;99.90;;;;;;5072482;28;20698;-61
2023/04/16 09:12:54;;;;;;;0.22;0.22;;;10.10;99.90;;;;;;5072365;28;20173;-61
2023/04/16 09:15:19;;;;;;;0.03;0.03;;;10.10;99.90;;;;;;5055008;28;20172;-61
2023/04/16 09:17:45;;;;;;;0.00;0.00;;;10.10;99.90;;;;;;5081013;28;20160;-61
2023/04/16 09:20:11;;;;;;;0.00;0.00;;;10.10;99.90;;;;;;5092728;28;20172;-61
2023/04/16 09:22:39;;;;;;;0.10;0.10;;;10.10;99.90;;;;;;5092312;28;20172;-61
2023/04/16 09:25:05;;;;;;;0.40;0.40;;;10.20;99.90;;;;;;5092557;28;20637;-61
2023/04/16 09:27:31;;;;;;;0.00;0.00;;;10.20;99.90;;;;;;5092172;28;20551;-61
2023/04/16 09:29:56;;;;;;;0.55;0.40;;;10.10;99.90;;;;;;5092488;28;20220;-61
2023/04/16 09:32:26;;;;;;;0.03;0.03;;;10.10;99.90;;;;;;5092335;28;20221;-61
2023/04/16 09:35:00;;;;;;;0.10;0.10;;;10.10;99.90;;;;;;5092416;28;20526;-61
2023/04/16 09:37:29;;;;;;;0.43;0.00;;;10.10;99.90;;;;;;5092208;28;20176;-61
2023/04/16 09:40:00;;;;;;;0.00;0.00;;;10.10;99.90;;;;;;5092192;28;20199;-61
2023/04/16 09:42:30;;;;;;;0.00;0.00;;;10.10;99.90;;;;;;5091944;28;20175;-61
2023/04/16 09:44:57;;;;;;;0.00;0.00;;;10.10;99.90;;;;;;5092317;28;20534;-61
2023/04/16 09:47:24;;;;;;;0.88;0.85;;;10.20;99.90;;;;;;5092007;28;20183;-61
2023/04/16 09:49:50;;;;;;;0.00;0.00;;;10.20;99.90;;;;;;5092230;28;20302;-61
2023/04/16 09:52:17;;;;;;;0.00;0.00;;;10.20;99.90;;;;;;5092107;28;20268;-61
2023/04/16 09:54:51;;;;;;;0.13;0.13;;;10.20;99.90;;;;;;5073957;28;20175;-61
2023/04/16 09:57:20;;;;;;;0.08;0.08;;;10.30;99.90;;;;;;5091822;28;20180;-61
2023/04/16 09:59:47;;;;;;;0.35;0.35;;;10.30;99.90;;;;;;5091845;28;20191;-61
2023/04/16 10:02:12;;;;;;;0.20;0.17;;;10.30;99.90;;;;;;5091915;28;20217;-61
2023/04/16 10:04:49;;;;;;;0.00;0.00;;;10.20;99.90;;;;;;5084667;28;20181;-61
2023/04/16 10:07:15;;;;;;;0.05;0.05;;;10.10;99.90;;;;;;5071566;28;20569;-61
2023/04/16 10:09:41;;;;;;;0.10;0.10;;;10.00;99.90;;;;;;5071743;28;20274;-61
2023/04/16 10:12:07;;;;;;;0.40;0.40;;;10.10;99.90;;;;;;5071488;28;20608;-61
2023/04/16 10:14:32;;;;;;;0.00;0.00;;;10.00;99.90;;;;;;5071564;28;20180;-61
2023/04/16 10:16:59;;;;;;;0.00;0.00;;;10.00;99.90;;;;;;5075292;28;20904;-61
2023/04/16 10:19:30;;;;;;;0.00;0.00;;;10.00;99.90;;;;;;5091693;28;20176;-61
2023/04/16 10:21:57;;;;;;;0.28;0.28;;;10.00;99.90;;;;;;5091778;28;20508;-61
2023/04/16 10:24:24;;;;;;;0.00;0.00;;;10.00;99.90;;;;;;5091672;28;20218;-61
2023/04/16 10:26:51;;;;;;;0.00;0.00;;;10.00;99.90;;;;;;5091463;28;20216;-61
2023/04/16 10:29:17;;;;;;;0.13;0.13;;;9.90;99.90;;;;;;5091537;28;20215;-61
2023/04/16 10:31:44;;;;;;;0.10;0.10;;;9.90;99.90;;;;;;5091567;28;20176;-61
2023/04/16 10:34:10;;;;;;;0.20;0.20;;;9.80;99.90;;;;;;5091524;28;20172;-61
2023/04/16 10:36:36;;;;;;;0.00;0.00;;;9.80;99.90;;;;;;5091471;28;20654;-61
2023/04/16 10:39:02;;;;;;;0.05;0.00;;;9.80;99.90;;;;;;5091372;28;20168;-61
2023/04/16 10:41:31;;;;;;;0.43;0.43;;;9.70;99.90;;;;;;5091256;28;20313;-61
2023/04/16 10:44:10;;;;;;;0.00;0.00;;;9.70;99.90;;;;;;5091381;28;20272;-61
2023/04/16 10:46:41;;;;;;;0.15;0.15;;;9.70;99.90;;;;;;5091520;28;20503;-61
2023/04/16 10:49:20;;;;;;;0.00;0.00;;;9.70;99.90;;;;;;5091325;28;20219;-61
2023/04/16 10:51:59;;;;;;;0.00;0.00;;;9.70;99.90;;;;;;5091433;28;20179;-61
2023/04/16 10:54:28;;;;;;;0.00;0.00;;;9.80;99.90;;;;;;5091102;28;20310;-61
2023/04/16 10:57:02;;;;;;;0.15;0.15;;;9.80;99.90;;;;;;5091114;28;20168;-61
2023/04/16 10:59:32;;;;;;;0.00;0.00;;;9.80;99.90;;;;;;5091155;28;20176;-61
2023/04/16 11:02:02;;;;;;;0.00;0.00;;;9.70;99.90;;;;;;5091247;28;20176;-61
2023/04/16 11:04:32;;;;;;;0.00;0.00;;;9.70;99.90;;;;;;5091235;28;20169;-61
2023/04/16 11:07:09;;;;;;;0.00;0.00;;;9.70;99.90;;;;;;5091428;28;20169;-61
2023/04/16 11:09:47;;;;;;;0.38;0.38;;;9.70;99.90;;;;;;5091343;28;20591;-61
2023/04/16 11:12:17;;;;;;;0.00;0.00;;;9.70;99.90;;;;;;5091123;28;20529;-61
2023/04/16 11:14:51;;;;;;;0.20;0.20;;;9.70;99.90;;;;;;5073014;28;20189;-61
2023/04/16 11:17:18;;;;;;;0.00;0.00;;;9.70;99.90;;;;;;5077185;28;20237;-61
2023/04/16 11:19:44;;;;;;;0.00;0.00;;;9.70;99.90;;;;;;5091010;28;20183;-60
2023/04/16 11:22:13;;;;;;;0.17;0.17;;;9.70;99.90;;;;;;5093711;28;20557;-61
2023/04/16 11:24:39;;;;;;;0.20;0.20;;;9.70;99.90;;;;;;5095059;28;20658;-61
2023/04/16 11:27:06;;;;;;;0.08;0.08;;;9.70;99.90;;;;;;5094601;28;20220;-62
2023/04/16 11:29:31;;;;;;;0.13;0.13;;;9.70;99.90;;;;;;5094708;28;20247;-62
2023/04/16 11:31:57;;;;;;;0.30;0.30;;;9.70;99.90;;;;;;5094651;28;20203;-60
2023/04/16 11:34:23;;;;;;;0.30;0.30;;;9.70;99.90;;;;;;5094552;28;20212;-60
2023/04/16 11:36:50;;;;;;;0.00;0.00;;;9.80;99.90;;;;;;5094749;28;20195;-60
2023/04/16 11:39:15;;;;;;;0.00;0.00;;;9.70;99.90;;;;;;5094768;28;20241;-60
2023/04/16 11:41:48;;;;;;;0.10;0.10;;;9.70;99.90;;;;;;5076302;28;20635;-60
2023/04/16 11:44:19;;;;;;;0.22;0.22;;;9.70;99.90;;;;;;5094371;28;20184;-60
2023/04/16 11:46:44;;;;;;;0.50;0.50;;;9.70;99.90;;;;;;5094370;28;20172;-60
2023/04/16 11:49:10;;;;;;;0.05;0.05;;;9.80;99.90;;;;;;5094324;28;20257;-60
2023/04/16 11:51:43;;;;;;;2.10;0.65;;;9.70;99.90;;;;;;5094239;28;20180;-60
2023/04/16 11:54:09;;;;;;;0.00;0.00;;;9.70;99.90;;;;;;5094384;28;20259;-60
2023/04/16 11:56:36;;;;;;;0.00;0.00;;;9.70;99.90;;;;;;5094149;28;20595;-60
2023/04/16 11:59:15;;;;;;;0.10;0.05;;;9.70;99.90;;;;;;5094161;28;20172;-60
2023/04/16 12:01:49;;;;;;;0.00;0.00;;;9.80;99.90;;;;;;5094154;28;20187;-60
2023/04/16 12:04:16;;;;;;;0.32;0.28;;;9.80;99.90;;;;;;5094135;28;20757;-60
2023/04/16 12:07:10;;;;;;;0.00;0.00;;;9.90;99.90;;;;;;5094049;28;20623;-61
2023/04/16 12:09:38;;;;;;;0.15;0.15;;;9.90;99.90;;;;;;5094099;28;20653;-60
2023/04/16 12:12:04;;;;;;;0.00;0.00;;;9.90;99.90;;;;;;5093784;28;20172;-60
2023/04/16 12:14:30;;;;;;;0.00;0.00;;;10.00;99.90;;;;;;5093934;28;20246;-63
2023/04/16 12:17:15;;;;;;;0.10;0.10;;;10.10;99.90;;;;;;5092758;28;20187;-61
2023/04/16 12:19:51;;;;;;;0.00;0.00;;;10.20;99.90;;;;;;5091139;28;20191;-61
2023/04/16 12:22:17;;;;;;;0.00;0.00;;;10.20;99.90;;;;;;5093778;28;20190;-61
2023/04/16 12:24:42;;;;;;;0.00;0.00;;;10.20;99.90;;;;;;5093761;28;20199;-60
2023/04/16 12:27:08;;;;;;;0.17;0.17;;;10.20;99.90;;;;;;5092360;28;20262;-60
2023/04/16 12:29:34;;;;;;;0.00;0.00;;;10.20;99.90;;;;;;5093598;28;20689;-61
2023/04/16 12:32:00;;;;;;;0.00;0.00;;;10.10;99.90;;;;;;5093620;28;20177;-60
2023/04/16 12:34:26;;;;;;;0.32;0.32;;;10.10;99.90;;;;;;5093007;28;20213;-60
2023/04/16 12:37:10;;;;;;;0.15;0.15;;;10.10;99.90;;;;;;5093550;28;20176;-61
2023/04/16 12:39:35;;;;;;;0.00;0.00;;;10.00;99.90;;;;;;5093606;28;20695;-61
2023/04/16 12:42:02;;;;;;;0.88;0.20;;;10.10;99.90;;;;;;5093444;28;20176;-61
2023/04/16 12:44:28;;;;;;;0.00;0.00;;;10.20;99.90;;;;;;5093294;28;20172;-62
2023/04/16 12:46:54;;;;;;;0.00;0.00;;;10.30;99.90;;;;;;5091966;28;20183;-61
2023/04/16 12:49:19;;;;;;;0.00;0.00;;;10.30;99.90;;;;;;5093247;28;20214;-61
2023/04/16 12:51:45;;;;;;;0.00;0.00;;;10.30;99.90;;;;;;5093013;28;20179;-63